createdAt,value
2023-05-13T00:00:07.896Z,4.43
2023-05-13T00:02:35.986Z,3.03
2023-05-13T00:05:04.761Z,2.90
2023-05-13T00:07:34.639Z,2.75
2023-05-13T00:10:02.709Z,2.58
2023-05-13T00:12:31.641Z,3.40
2023-05-13T00:15:00.174Z,3.33
2023-05-13T00:17:28.742Z,2.58
2023-05-13T00:19:56.820Z,3.17
2023-05-13T00:22:25.401Z,2.75
2023-05-13T00:24:55.304Z,3.22
2023-05-13T00:27:23.373Z,2.83
2023-05-13T00:29:51.947Z,2.78
2023-05-13T00:32:20.094Z,2.78
2023-05-13T00:34:48.648Z,2.67
2023-05-13T00:37:17.522Z,2.72
2023-05-13T00:39:45.601Z,3.45
2023-05-13T00:42:15.750Z,2.60
2023-05-13T00:44:43.912Z,2.90
2023-05-13T00:47:13.516Z,2.63
2023-05-13T00:49:41.638Z,2.50
2023-05-13T00:52:10.097Z,4.22
2023-05-13T00:54:38.612Z,2.60
2023-05-13T00:57:07.020Z,2.85
2023-05-13T00:59:36.481Z,2.83
2023-05-13T01:02:11.964Z,2.30
2023-05-13T01:04:47.368Z,2.65
2023-05-13T01:07:25.404Z,3.20
2023-05-13T01:10:04.679Z,3.03
2023-05-13T01:12:36.735Z,2.97
2023-05-13T01:15:10.038Z,2.45
2023-05-13T01:17:44.384Z,2.75
2023-05-13T01:20:13.268Z,2.72
2023-05-13T01:22:42.731Z,2.90
2023-05-13T01:25:11.990Z,2.92
2023-05-13T01:27:41.074Z,3.33
2023-05-13T01:30:11.375Z,3.78
2023-05-13T01:32:43.007Z,3.90
2023-05-13T01:35:13.345Z,3.10
2023-05-13T01:37:43.649Z,3.13
2023-05-13T01:40:28.241Z,2.97
2023-05-13T01:43:01.060Z,3.67
2023-05-13T01:45:30.393Z,4.18
2023-05-13T01:47:58.534Z,3.58
2023-05-13T01:50:27.172Z,3.13
2023-05-13T01:52:57.846Z,2.85
2023-05-13T01:55:25.892Z,2.90
2023-05-13T01:57:53.970Z,3.03
2023-05-13T02:00:22.893Z,3.50
2023-05-13T02:02:51.166Z,2.93
2023-05-13T02:05:20.040Z,3.50
2023-05-13T02:07:48.058Z,3.22
2023-05-13T02:10:17.587Z,3.45
2023-05-13T02:12:45.629Z,3.22
2023-05-13T02:15:14.680Z,2.67
2023-05-13T02:17:42.726Z,2.83
2023-05-13T02:20:12.427Z,3.42
2023-05-13T02:22:40.977Z,3.30
2023-05-13T02:25:10.004Z,3.33
2023-05-13T02:27:39.483Z,3.33
2023-05-13T02:30:08.718Z,2.97
2023-05-13T02:32:37.262Z,3.80
2023-05-13T02:35:06.101Z,2.78
2023-05-13T02:37:34.623Z,4.78
2023-05-13T02:40:03.866Z,2.80
2023-05-13T02:42:32.196Z,3.00
2023-05-13T02:45:02.123Z,2.72
2023-05-13T02:47:30.687Z,3.30
2023-05-13T02:49:58.997Z,3.10
2023-05-13T02:52:27.586Z,3.40
2023-05-13T02:54:55.652Z,3.03
2023-05-13T02:57:24.270Z,3.03
2023-05-13T02:59:52.298Z,3.33
2023-05-13T03:02:22.509Z,2.75
2023-05-13T03:04:50.668Z,3.78
2023-05-13T03:07:19.193Z,3.58
2023-05-13T03:09:47.261Z,2.80
2023-05-13T03:12:16.115Z,3.05
2023-05-13T03:14:44.562Z,3.08
2023-05-13T03:17:13.539Z,3.67
2023-05-13T03:19:43.113Z,3.47
2023-05-13T03:22:11.237Z,4.25
2023-05-13T03:24:39.326Z,3.72
2023-05-13T03:27:07.420Z,3.93
2023-05-13T03:29:35.723Z,3.80
2023-05-13T03:32:06.508Z,4.30
2023-05-13T03:34:36.295Z,4.60
2023-05-13T03:37:06.222Z,4.93
2023-05-13T03:39:34.216Z,7.53
2023-05-13T03:42:03.320Z,4.17
2023-05-13T03:44:31.392Z,3.80
2023-05-13T03:46:59.948Z,4.77
2023-05-13T03:49:28.509Z,4.95
2023-05-13T03:51:56.540Z,4.13
2023-05-13T03:54:26.583Z,5.65
2023-05-13T03:56:54.644Z,3.33
2023-05-13T03:59:23.244Z,3.60
2023-05-13T04:01:51.367Z,3.57
2023-05-13T04:04:19.700Z,4.28
2023-05-13T04:06:47.761Z,5.50
2023-05-13T04:09:16.266Z,4.05
2023-05-13T04:11:45.810Z,3.22
2023-05-13T04:14:14.352Z,3.50
2023-05-13T04:16:43.428Z,3.20
2023-05-13T04:19:12.189Z,4.03
2023-05-13T04:21:40.850Z,4.05
2023-05-13T04:24:09.015Z,3.85
2023-05-13T04:26:39.849Z,3.70
2023-05-13T04:29:09.297Z,3.63
2023-05-13T04:31:37.914Z,4.00
2023-05-13T04:34:06.464Z,4.10
2023-05-13T04:36:34.514Z,2.90
2023-05-13T04:39:03.100Z,3.35
2023-05-13T04:41:31.144Z,4.07
2023-05-13T04:43:59.669Z,3.80
2023-05-13T04:46:29.124Z,2.97
2023-05-13T04:48:57.708Z,3.03
2023-05-13T04:51:26.075Z,6.60
2023-05-13T04:53:55.155Z,3.37
2023-05-13T04:56:23.896Z,3.45
2023-05-13T04:58:51.941Z,3.83
2023-05-13T05:01:20.101Z,3.20
2023-05-13T05:03:50.028Z,3.20
2023-05-13T05:06:18.574Z,4.20
2023-05-13T05:08:46.618Z,2.95
2023-05-13T05:11:15.148Z,3.00
2023-05-13T05:13:43.185Z,3.17
2023-05-13T05:16:11.965Z,3.85
2023-05-13T05:18:41.312Z,15.73
2023-05-13T05:21:11.485Z,8.60
2023-05-13T05:23:39.555Z,7.33
2023-05-13T05:26:12.192Z,6.27
2023-05-13T05:28:40.674Z,6.03
2023-05-13T05:31:10.162Z,5.22
2023-05-13T05:33:39.120Z,5.50
2023-05-13T05:36:07.980Z,6.35
2023-05-13T05:38:37.898Z,5.82
2023-05-13T05:41:06.170Z,7.70
2023-05-13T05:43:34.715Z,5.53
2023-05-13T05:46:02.799Z,4.63
2023-05-13T05:48:33.839Z,5.40
2023-05-13T05:51:03.297Z,5.43
2023-05-13T05:53:31.807Z,7.47
2023-05-13T05:56:01.250Z,6.22
2023-05-13T05:58:29.304Z,8.27
2023-05-13T06:00:58.405Z,9.17
2023-05-13T06:03:26.666Z,8.27
2023-05-13T06:05:55.176Z,7.43
2023-05-13T06:08:30.496Z,6.72
2023-05-13T06:11:01.058Z,7.25
2023-05-13T06:13:29.149Z,5.27
2023-05-13T06:15:57.303Z,5.88
2023-05-13T06:18:27.396Z,5.32
2023-05-13T06:20:55.503Z,4.57
2023-05-13T06:23:24.010Z,5.03
2023-05-13T06:25:52.048Z,5.10
2023-05-13T06:28:21.962Z,4.15
2023-05-13T06:30:50.084Z,4.10
2023-05-13T06:33:18.746Z,4.60
2023-05-13T06:35:49.486Z,4.90
2023-05-13T06:38:18.760Z,3.88
2023-05-13T06:40:46.880Z,3.90
2023-05-13T06:43:16.489Z,3.75
2023-05-13T06:45:46.077Z,4.20
2023-05-13T06:48:15.660Z,4.22
2023-05-13T06:50:43.707Z,3.55
2023-05-13T06:53:12.739Z,3.60
2023-05-13T06:55:43.102Z,3.80
2023-05-13T06:58:11.524Z,4.22
2023-05-13T07:00:41.071Z,3.97
2023-05-13T07:03:10.729Z,4.75
2023-05-13T07:05:39.238Z,3.40
2023-05-13T07:08:08.787Z,4.00
2023-05-13T07:10:37.888Z,3.22
2023-05-13T07:13:06.073Z,3.92
2023-05-13T07:15:34.565Z,3.67
2023-05-13T07:18:02.732Z,4.50
2023-05-13T07:20:32.769Z,2.90
2023-05-13T07:23:01.339Z,3.15
2023-05-13T07:25:29.897Z,3.53
2023-05-13T07:27:57.937Z,3.80
2023-05-13T07:30:26.804Z,2.88
2023-05-13T07:32:54.932Z,3.75
2023-05-13T07:35:23.778Z,3.20
2023-05-13T07:37:54.113Z,3.55
2023-05-13T07:40:22.920Z,2.63
2023-05-13T07:42:51.526Z,3.20
2023-05-13T07:45:19.779Z,3.63
2023-05-13T07:47:48.053Z,3.20
2023-05-13T07:50:16.137Z,3.00
2023-05-13T07:52:44.402Z,3.50
2023-05-13T07:55:14.323Z,3.15
2023-05-13T07:57:42.367Z,3.33
2023-05-13T08:00:11.913Z,3.47
2023-05-13T08:02:40.646Z,3.08
2023-05-13T08:05:09.465Z,5.18
2023-05-13T08:07:38.038Z,2.78
2023-05-13T08:10:07.596Z,2.90
2023-05-13T08:12:37.548Z,4.72
2023-05-13T08:15:07.772Z,4.05
2023-05-13T08:17:36.846Z,3.25
2023-05-13T08:20:05.904Z,4.18
2023-05-13T08:22:34.437Z,3.00
2023-05-13T08:25:03.473Z,3.00
2023-05-13T08:27:32.111Z,2.72
2023-05-13T08:30:01.523Z,2.70
2023-05-13T08:32:30.064Z,3.10
2023-05-13T08:34:58.130Z,2.53
2023-05-13T08:37:26.672Z,2.30
2023-05-13T08:39:56.014Z,2.83
2023-05-13T08:42:25.955Z,2.78
2023-05-13T08:44:54.329Z,2.88
2023-05-13T08:47:35.474Z,2.88
2023-05-13T08:50:05.619Z,2.90
2023-05-13T08:52:34.313Z,2.50
2023-05-13T08:55:03.631Z,4.38
2023-05-13T08:57:33.187Z,3.00
2023-05-13T09:00:01.290Z,4.43
2023-05-13T09:02:31.444Z,2.92
2023-05-13T09:05:03.477Z,2.42
2023-05-13T09:07:32.543Z,2.70
2023-05-13T09:10:00.823Z,2.70
2023-05-13T09:12:49.091Z,3.22
2023-05-13T09:15:19.768Z,2.90
2023-05-13T09:17:52.866Z,2.33
2023-05-13T09:20:22.103Z,2.83
2023-05-13T09:22:52.164Z,2.63
2023-05-13T09:25:22.062Z,2.97
2023-05-13T09:27:54.661Z,2.60
2023-05-13T09:30:23.395Z,2.20
2023-05-13T09:33:11.106Z,2.80
2023-05-13T09:35:41.442Z,2.35
2023-05-13T09:38:17.964Z,2.85
2023-05-13T09:40:52.910Z,2.88
2023-05-13T09:43:23.064Z,2.35
2023-05-13T09:45:54.906Z,2.45
2023-05-13T09:48:28.419Z,2.55
2023-05-13T09:50:58.530Z,2.90
2023-05-13T09:53:27.572Z,2.60
2023-05-13T09:55:57.776Z,4.25
2023-05-13T09:58:31.341Z,2.95
2023-05-13T10:01:00.231Z,2.60
2023-05-13T10:03:31.764Z,6.03
2023-05-13T10:06:03.253Z,2.30
2023-05-13T10:08:32.531Z,2.50
2023-05-13T10:11:01.734Z,2.40
2023-05-13T10:13:32.717Z,2.60
2023-05-13T10:16:01.260Z,2.50
2023-05-13T10:18:32.486Z,2.72
2023-05-13T10:21:01.121Z,2.58
2023-05-13T10:23:31.220Z,2.42
2023-05-13T10:26:01.233Z,2.72
2023-05-13T10:28:29.533Z,2.50
2023-05-13T10:30:58.572Z,2.50
2023-05-13T10:33:29.605Z,1.77
2023-05-13T10:36:12.723Z,2.33
2023-05-13T10:38:54.433Z,4.25
2023-05-13T10:41:55.620Z,2.00
2023-05-13T10:44:25.261Z,2.30
2023-05-13T10:46:53.395Z,1.73
2023-05-13T10:49:24.746Z,1.75
2023-05-13T10:51:54.156Z,2.70
2023-05-13T10:54:25.302Z,2.25
2023-05-13T10:56:59.207Z,1.95
2023-05-13T10:59:30.954Z,2.13
2023-05-13T11:02:02.086Z,4.22
2023-05-13T11:04:31.615Z,2.20
2023-05-13T11:07:17.066Z,2.08
2023-05-13T11:09:51.901Z,2.70
2023-05-13T11:12:20.448Z,2.40
2023-05-13T11:14:48.786Z,4.25
2023-05-13T11:17:21.133Z,7.40
2023-05-13T11:19:51.635Z,6.78
2023-05-13T11:22:24.554Z,5.80
2023-05-13T11:25:06.184Z,5.50
2023-05-13T11:27:39.620Z,7.68
2023-05-13T11:30:09.771Z,5.00
2023-05-13T11:32:56.933Z,3.83
2023-05-13T11:35:26.814Z,2.78
2023-05-13T11:37:59.812Z,3.13
2023-05-13T11:40:31.717Z,4.75
2023-05-13T11:43:00.641Z,4.15
2023-05-13T11:45:29.870Z,4.32
2023-05-13T11:47:59.622Z,3.20
2023-05-13T11:50:30.514Z,2.50
2023-05-13T11:53:01.549Z,2.50
2023-05-13T11:55:31.821Z,2.42
2023-05-13T11:58:00.987Z,4.63
2023-05-13T12:00:31.020Z,2.53
2023-05-13T12:02:59.807Z,1.75
2023-05-13T12:05:28.827Z,2.70
2023-05-13T12:08:01.215Z,2.83
2023-05-13T12:10:29.761Z,4.20
2023-05-13T12:12:59.128Z,3.85
2023-05-13T12:15:27.322Z,3.30
2023-05-13T12:17:56.215Z,3.78
2023-05-13T12:20:25.010Z,3.65
2023-05-13T12:22:57.298Z,2.55
2023-05-13T12:25:39.273Z,3.67
2023-05-13T12:28:12.483Z,1.98
2023-05-13T12:30:42.225Z,2.13
2023-05-13T12:33:15.759Z,2.20
2023-05-13T12:35:44.131Z,2.75
2023-05-13T12:38:18.134Z,3.47
2023-05-13T12:40:48.665Z,2.13
2023-05-13T12:43:19.292Z,3.30
2023-05-13T12:45:48.771Z,3.00
2023-05-13T12:48:17.507Z,2.80
2023-05-13T12:50:46.041Z,3.03
2023-05-13T12:53:14.111Z,3.35
2023-05-13T12:55:42.616Z,2.38
2023-05-13T12:58:13.404Z,3.40
2023-05-13T13:00:42.095Z,2.28
2023-05-13T13:03:10.483Z,2.22
2023-05-13T13:05:39.115Z,2.88
2023-05-13T13:08:07.761Z,3.85
2023-05-13T13:10:36.452Z,2.83
2023-05-13T13:13:04.507Z,2.97
2023-05-13T13:15:34.387Z,2.60
2023-05-13T13:18:02.960Z,2.40
2023-05-13T13:20:31.050Z,2.78
2023-05-13T13:22:59.904Z,2.70
2023-05-13T13:25:29.914Z,3.10
2023-05-13T13:27:58.457Z,3.55
2023-05-13T13:30:26.486Z,2.13
2023-05-13T13:32:56.381Z,2.10
2023-05-13T13:35:24.455Z,2.10
2023-05-13T13:37:54.737Z,2.33
2023-05-13T13:40:23.370Z,2.15
2023-05-13T13:42:52.253Z,2.08
2023-05-13T13:45:25.513Z,2.53
2023-05-13T13:47:54.944Z,1.88
2023-05-13T13:50:23.815Z,1.88
2023-05-13T13:52:52.454Z,1.70
2023-05-13T13:55:20.774Z,2.13
2023-05-13T13:57:48.978Z,1.88
2023-05-13T14:00:18.014Z,1.83
2023-05-13T14:02:46.750Z,2.05
2023-05-13T14:05:16.966Z,2.65
2023-05-13T14:07:45.094Z,3.13
2023-05-13T14:10:13.393Z,3.95
2023-05-13T14:12:41.922Z,3.65
2023-05-13T14:15:10.508Z,3.03
2023-05-13T14:17:39.184Z,5.35
2023-05-13T14:20:10.676Z,5.10
2023-05-13T14:22:40.548Z,5.43
2023-05-13T14:25:09.724Z,5.03
2023-05-13T14:27:38.466Z,4.20
2023-05-13T14:30:08.550Z,4.07
2023-05-13T14:32:36.651Z,4.93
2023-05-13T14:35:05.416Z,4.25
2023-05-13T14:37:33.469Z,6.95
2023-05-13T14:40:03.453Z,3.25
2023-05-13T14:42:31.569Z,3.60
2023-05-13T14:44:59.582Z,3.20
2023-05-13T14:47:28.194Z,2.38
2023-05-13T14:49:56.263Z,1.95
2023-05-13T14:52:24.976Z,1.90
2023-05-13T14:54:53.004Z,2.45
2023-05-13T14:57:22.997Z,2.50
2023-05-13T14:59:51.504Z,2.65
2023-05-13T15:02:19.679Z,3.38
2023-05-13T15:04:48.411Z,4.63
2023-05-13T15:07:16.491Z,2.08
2023-05-13T15:09:44.572Z,2.97
2023-05-13T15:12:13.085Z,2.05
2023-05-13T15:14:42.984Z,1.83
2023-05-13T15:17:12.173Z,3.42
2023-05-13T15:19:41.068Z,1.85
2023-05-13T15:22:09.690Z,1.80
2023-05-13T15:24:38.916Z,1.98
2023-05-13T15:27:07.815Z,1.52
2023-05-13T15:29:36.329Z,1.73
2023-05-13T15:32:06.460Z,1.70
2023-05-13T15:34:34.990Z,1.92
2023-05-13T15:37:03.518Z,2.05
2023-05-13T15:39:31.616Z,2.40
2023-05-13T15:42:00.207Z,1.60
2023-05-13T15:44:28.785Z,1.65
2023-05-13T15:46:57.504Z,1.80
2023-05-13T15:49:27.382Z,2.80
2023-05-13T15:51:56.632Z,2.45
2023-05-13T15:54:24.704Z,2.13
2023-05-13T15:56:53.365Z,3.25
2023-05-13T15:59:21.889Z,2.15
2023-05-13T16:01:50.056Z,1.67
2023-05-13T16:04:19.143Z,1.60
2023-05-13T16:06:48.609Z,1.75
2023-05-13T16:09:17.148Z,1.63
2023-05-13T16:11:45.171Z,1.50
2023-05-13T16:14:13.722Z,3.20
2023-05-13T16:16:42.349Z,1.73
2023-05-13T16:19:11.039Z,1.73
2023-05-13T16:21:42.921Z,1.70
2023-05-13T16:24:12.831Z,1.90
2023-05-13T16:26:41.342Z,1.70
2023-05-13T16:29:09.579Z,1.80
2023-05-13T16:31:38.179Z,2.10
2023-05-13T16:34:06.305Z,2.33
2023-05-13T16:36:35.024Z,1.73
2023-05-13T16:39:03.115Z,2.33
2023-05-13T16:41:33.738Z,2.08
2023-05-13T16:44:01.759Z,1.58
2023-05-13T16:46:30.748Z,1.88
2023-05-13T16:49:00.155Z,1.70
2023-05-13T16:51:28.995Z,1.40
2023-05-13T16:53:57.260Z,3.08
2023-05-13T16:56:26.868Z,2.10
2023-05-13T16:58:56.294Z,1.65
2023-05-13T17:01:24.849Z,2.13
2023-05-13T17:03:53.400Z,1.83
2023-05-13T17:06:21.443Z,1.70
2023-05-13T17:08:49.954Z,2.42
2023-05-13T17:11:18.090Z,2.40
2023-05-13T17:13:47.209Z,1.95
2023-05-13T17:16:17.133Z,4.95
2023-05-13T17:18:45.228Z,7.55
2023-05-13T17:21:13.787Z,4.07
2023-05-13T17:23:42.318Z,2.80
2023-05-13T17:26:10.984Z,5.43
2023-05-13T17:28:40.174Z,5.63
2023-05-13T17:31:09.127Z,22.58
2023-05-13T17:33:38.596Z,13.63
2023-05-13T17:36:07.384Z,7.95
2023-05-13T17:38:35.478Z,5.95
2023-05-13T17:41:03.744Z,3.97
2023-05-13T17:43:31.903Z,5.20
2023-05-13T17:46:00.182Z,4.00
2023-05-13T17:48:28.468Z,3.10
2023-05-13T17:50:58.677Z,2.40
2023-05-13T17:53:26.854Z,2.78
2023-05-13T17:55:55.347Z,2.25
2023-05-13T17:58:23.385Z,2.00
2023-05-13T18:00:52.046Z,2.40
2023-05-13T18:03:21.668Z,2.38
2023-05-13T18:05:49.975Z,3.25
2023-05-13T18:08:19.887Z,3.25
2023-05-13T18:10:48.487Z,2.13
2023-05-13T18:13:17.181Z,2.45
2023-05-13T18:15:45.228Z,2.47
2023-05-13T18:18:13.512Z,2.50
2023-05-13T18:20:42.624Z,2.60
2023-05-13T18:23:10.847Z,6.97
2023-05-13T18:25:54.679Z,5.18
2023-05-13T18:28:24.150Z,4.60
2023-05-13T18:30:52.741Z,3.60
2023-05-13T18:33:21.713Z,3.22
2023-05-13T18:35:50.534Z,3.25
2023-05-13T18:38:18.670Z,4.47
2023-05-13T18:40:48.077Z,3.50
2023-05-13T18:43:16.593Z,3.17
2023-05-13T18:45:44.659Z,3.60
2023-05-13T18:48:12.780Z,3.28
2023-05-13T18:50:44.010Z,3.20
2023-05-13T18:53:12.048Z,2.88
2023-05-13T18:55:40.935Z,2.97
2023-05-13T18:58:10.311Z,3.33
2023-05-13T19:00:38.890Z,3.22
2023-05-13T19:03:07.705Z,3.70
2023-05-13T19:05:36.440Z,7.63
2023-05-13T19:08:05.370Z,5.88
2023-05-13T19:10:39.445Z,5.15
2023-05-13T19:13:08.262Z,4.70
2023-05-13T19:15:38.478Z,4.22
2023-05-13T19:18:06.710Z,3.70
2023-05-13T19:20:35.275Z,3.28
2023-05-13T19:23:03.406Z,3.58
2023-05-13T19:25:32.008Z,3.78
2023-05-13T19:28:00.274Z,5.65
2023-05-13T19:30:28.463Z,3.40
2023-05-13T19:32:57.895Z,3.60
2023-05-13T19:35:25.970Z,4.30
2023-05-13T19:37:55.496Z,5.30
2023-05-13T19:40:23.892Z,3.70
2023-05-13T19:42:53.125Z,3.72
2023-05-13T19:45:22.883Z,3.70
2023-05-13T19:47:51.321Z,3.90
2023-05-13T19:50:21.480Z,4.18
2023-05-13T19:52:49.675Z,3.80
2023-05-13T19:55:18.789Z,4.10
2023-05-13T19:57:47.533Z,3.85
2023-05-13T20:00:17.200Z,4.70
2023-05-13T20:02:45.642Z,4.05
2023-05-13T20:05:14.266Z,4.38
2023-05-13T20:07:43.713Z,4.30
2023-05-13T20:10:12.476Z,4.43
2023-05-13T20:12:41.752Z,5.18
2023-05-13T20:15:10.993Z,4.60
2023-05-13T20:17:39.853Z,6.05
2023-05-13T20:20:11.025Z,5.65
2023-05-13T20:22:39.150Z,4.63
2023-05-13T20:25:09.790Z,5.25
2023-05-13T20:27:38.284Z,5.03
2023-05-13T20:30:07.556Z,5.15
2023-05-13T20:32:35.708Z,4.72
2023-05-13T20:35:03.870Z,4.75
2023-05-13T20:37:31.956Z,4.53
2023-05-13T20:40:00.018Z,4.70
2023-05-13T20:42:29.947Z,4.28
2023-05-13T20:44:57.980Z,5.07
2023-05-13T20:47:26.796Z,4.18
2023-05-13T20:49:55.491Z,4.30
2023-05-13T20:52:23.612Z,4.47
2023-05-13T20:54:51.712Z,4.10
2023-05-13T20:57:19.782Z,4.70
2023-05-13T20:59:50.701Z,4.68
2023-05-13T21:02:18.871Z,4.70
2023-05-13T21:04:48.381Z,4.18
2023-05-13T21:07:16.439Z,4.82
2023-05-13T21:09:44.963Z,5.00
2023-05-13T21:12:13.072Z,5.00
2023-05-13T21:14:41.319Z,4.95
2023-05-13T21:17:12.181Z,4.88
2023-05-13T21:19:40.214Z,5.55
2023-05-13T21:22:08.301Z,5.05
2023-05-13T21:24:36.350Z,5.40
2023-05-13T21:27:04.504Z,5.88
2023-05-13T21:29:32.989Z,5.47
2023-05-13T21:32:01.118Z,4.97
2023-05-13T21:34:30.988Z,5.68
2023-05-13T21:36:59.512Z,5.00
2023-05-13T21:39:27.622Z,5.28
2023-05-13T21:41:55.664Z,6.07
2023-05-13T21:44:25.321Z,6.00
2023-05-13T21:46:53.446Z,5.97
2023-05-13T21:49:21.560Z,6.35
2023-05-13T21:51:51.351Z,5.60
2023-05-13T21:54:19.743Z,5.88
2023-05-13T21:56:48.440Z,5.93
2023-05-13T21:59:16.589Z,6.68
2023-05-13T22:01:45.241Z,6.43
2023-05-13T22:04:13.279Z,7.75
2023-05-13T22:06:41.356Z,6.47
2023-05-13T22:09:11.304Z,6.13
2023-05-13T22:11:39.351Z,6.40
2023-05-13T22:14:07.850Z,6.40
2023-05-13T22:16:37.042Z,6.15
2023-05-13T22:19:05.250Z,5.82
2023-05-13T22:21:33.483Z,6.55
2023-05-13T22:24:01.551Z,7.95
2023-05-13T22:26:31.003Z,6.25
2023-05-13T22:28:59.109Z,5.43
2023-05-13T22:31:27.723Z,5.88
2023-05-13T22:33:55.930Z,5.57
2023-05-13T22:36:24.031Z,5.10
2023-05-13T22:38:52.120Z,5.90
2023-05-13T22:41:24.119Z,5.25
2023-05-13T22:43:53.547Z,6.10
2023-05-13T22:46:22.107Z,6.18
2023-05-13T22:48:50.184Z,5.90
2023-05-13T22:51:18.721Z,5.80
2023-05-13T22:53:46.739Z,5.75
2023-05-13T22:56:14.840Z,5.30
2023-05-13T22:58:42.857Z,5.60
2023-05-13T23:01:12.763Z,6.32
2023-05-13T23:03:40.918Z,6.50
2023-05-13T23:06:10.272Z,6.85
2023-05-13T23:08:38.526Z,6.72
2023-05-13T23:11:07.142Z,7.05
2023-05-13T23:13:35.170Z,6.53
2023-05-13T23:16:03.765Z,6.70
2023-05-13T23:18:34.298Z,6.45
2023-05-13T23:21:03.122Z,7.10
2023-05-13T23:23:31.184Z,6.55
2023-05-13T23:25:59.735Z,5.78
2023-05-13T23:28:27.827Z,6.15
2023-05-13T23:30:56.360Z,8.60
2023-05-13T23:33:24.642Z,7.50
2023-05-13T23:35:57.916Z,7.47
2023-05-13T23:38:25.989Z,6.78
2023-05-13T23:40:54.943Z,6.10
2023-05-13T23:43:22.989Z,6.33
2023-05-13T23:45:51.120Z,6.53
2023-05-13T23:48:19.348Z,6.00
2023-05-13T23:50:47.889Z,5.80
2023-05-13T23:53:17.328Z,6.05
2023-05-13T23:55:45.826Z,5.60
2023-05-13T23:58:13.908Z,5.80
